createdAt,value
2023-06-07T00:04:34.248Z,67.35
2023-06-07T00:09:37.463Z,67.47
2023-06-07T00:14:40.669Z,67.59
2023-06-07T00:19:43.732Z,67.72
2023-06-07T00:24:46.886Z,67.78
2023-06-07T00:29:50.085Z,68.16
2023-06-07T00:34:53.223Z,68.07
2023-06-07T00:39:56.351Z,68.03
2023-06-07T00:44:59.437Z,68.19
2023-06-07T00:50:04.871Z,68.56
2023-06-07T00:55:09.660Z,68.66
2023-06-07T01:00:15.187Z,68.90
2023-06-07T01:05:21.587Z,69.12
2023-06-07T01:10:28.704Z,69.04
2023-06-07T01:15:33.105Z,69.12
2023-06-07T01:20:38.958Z,69.36
2023-06-07T01:25:42.060Z,69.43
2023-06-07T01:30:46.669Z,69.53
2023-06-07T01:35:53.361Z,69.59
2023-06-07T01:40:58.074Z,69.53
2023-06-07T01:46:02.427Z,69.66
2023-06-07T01:51:05.684Z,69.70
2023-06-07T01:56:17.451Z,69.61
2023-06-07T02:01:30.798Z,69.71
2023-06-07T02:06:38.027Z,69.79
2023-06-07T02:11:42.985Z,69.97
2023-06-07T02:16:46.130Z,69.86
2023-06-07T02:21:49.304Z,69.77
2023-06-07T02:26:55.315Z,69.92
2023-06-07T02:32:02.084Z,69.92
2023-06-07T02:37:05.916Z,69.96
2023-06-07T02:42:09.361Z,70.23
2023-06-07T02:47:12.536Z,70.32
2023-06-07T02:52:15.936Z,70.48
2023-06-07T02:57:19.188Z,70.25
2023-06-07T03:02:22.410Z,70.33
2023-06-07T03:07:27.154Z,70.44
2023-06-07T03:12:30.613Z,70.46
2023-06-07T03:17:34.640Z,70.51
2023-06-07T03:22:38.159Z,70.57
2023-06-07T03:27:44.496Z,70.57
2023-06-07T03:32:56.425Z,70.67
2023-06-07T03:38:11.084Z,70.55
2023-06-07T03:43:14.639Z,70.46
2023-06-07T03:48:19.659Z,70.47
2023-06-07T03:53:22.954Z,70.63
2023-06-07T03:58:26.273Z,70.62
2023-06-07T04:03:31.844Z,70.62
2023-06-07T04:08:38.569Z,70.52
2023-06-07T04:13:45.510Z,70.44
2023-06-07T04:18:49.095Z,70.39
2023-06-07T04:23:53.080Z,70.50
2023-06-07T04:28:59.795Z,70.50
2023-06-07T04:34:07.382Z,70.48
2023-06-07T04:39:12.487Z,70.54
2023-06-07T04:44:29.990Z,70.24
2023-06-07T04:49:42.121Z,70.31
2023-06-07T04:54:48.290Z,70.46
2023-06-07T04:59:53.806Z,70.26
2023-06-07T05:05:05.546Z,70.22
2023-06-07T05:10:09.400Z,70.12
2023-06-07T05:15:13.262Z,70.18
2023-06-07T05:20:18.708Z,69.93
2023-06-07T05:25:31.904Z,69.57
2023-06-07T05:30:35.920Z,69.56
2023-06-07T05:35:39.854Z,69.21
2023-06-07T05:40:43.832Z,68.99
2023-06-07T05:45:46.997Z,69.00
2023-06-07T05:50:50.323Z,68.85
2023-06-07T05:55:57.198Z,68.65
2023-06-07T06:01:00.555Z,68.69
2023-06-07T06:06:17.648Z,67.79
2023-06-07T06:13:52.417Z,67.30
2023-06-07T06:18:55.780Z,66.98
2023-06-07T06:23:59.498Z,66.93
2023-06-07T06:29:02.818Z,67.03
2023-06-07T06:34:06.690Z,67.04
2023-06-07T06:39:09.992Z,67.02
2023-06-07T06:44:13.372Z,66.61
2023-06-07T06:49:19.357Z,66.03
2023-06-07T06:54:22.926Z,65.86
2023-06-07T06:59:26.993Z,65.81
2023-06-07T07:04:30.546Z,65.25
2023-06-07T07:09:33.899Z,65.04
2023-06-07T07:14:37.087Z,64.84
2023-06-07T07:19:40.262Z,64.57
2023-06-07T07:24:43.397Z,64.90
2023-06-07T07:29:46.410Z,64.26
2023-06-07T07:34:49.683Z,63.72
2023-06-07T07:39:52.900Z,63.13
2023-06-07T07:44:56.279Z,62.84
2023-06-07T07:49:59.890Z,62.38
2023-06-07T07:55:04.584Z,62.19
2023-06-07T08:00:11.074Z,61.71
2023-06-07T08:05:22.873Z,61.85
2023-06-07T08:10:30.809Z,61.49
2023-06-07T08:15:34.159Z,61.45
2023-06-07T08:20:37.375Z,61.02
2023-06-07T08:25:40.683Z,61.07
2023-06-07T08:30:43.885Z,61.32
2023-06-07T08:35:47.026Z,61.22
2023-06-07T08:40:50.268Z,60.46
2023-06-07T08:45:54.791Z,60.30
2023-06-07T08:51:01.402Z,60.43
2023-06-07T08:56:05.673Z,60.01
2023-06-07T09:01:09.393Z,59.59
2023-06-07T09:06:14.872Z,59.85
2023-06-07T09:11:22.001Z,59.91
2023-06-07T09:16:54.484Z,59.84
2023-06-07T09:21:58.595Z,59.86
2023-06-07T09:27:04.412Z,59.20
2023-06-07T09:32:25.752Z,59.09
2023-06-07T09:37:42.292Z,58.87
2023-06-07T09:42:59.265Z,58.74
2023-06-07T09:48:06.148Z,58.53
2023-06-07T09:53:10.670Z,57.98
2023-06-07T09:58:23.712Z,57.69
2023-06-07T10:03:29.868Z,57.69
2023-06-07T10:08:33.942Z,57.74
2023-06-07T10:13:39.136Z,56.95
2023-06-07T10:18:45.813Z,56.48
2023-06-07T10:23:55.202Z,56.14
2023-06-07T10:29:10.744Z,56.15
2023-06-07T10:34:16.011Z,55.53
2023-06-07T10:39:19.970Z,54.06
2023-06-07T10:44:24.182Z,53.31
2023-06-07T10:49:38.424Z,53.06
2023-06-07T10:54:42.842Z,52.38
2023-06-07T10:59:46.085Z,52.49
2023-06-07T11:04:59.672Z,52.81
2023-06-07T11:10:06.331Z,53.23
2023-06-07T11:15:32.162Z,53.88
2023-06-07T11:20:41.857Z,54.01
2023-06-07T11:25:46.309Z,53.72
2023-06-07T11:30:50.704Z,53.68
2023-06-07T11:35:55.259Z,54.14
2023-06-07T11:40:58.630Z,54.64
2023-06-07T11:46:02.149Z,55.18
2023-06-07T11:51:05.226Z,55.64
2023-06-07T11:56:09.637Z,55.58
2023-06-07T12:01:13.679Z,55.27
2023-06-07T12:06:16.996Z,55.01
2023-06-07T12:11:25.832Z,55.32
2023-06-07T12:16:29.970Z,55.92
2023-06-07T12:21:33.696Z,55.21
2023-06-07T12:26:38.172Z,54.90
2023-06-07T12:31:48.005Z,55.40
2023-06-07T12:36:51.963Z,55.52
2023-06-07T12:41:55.135Z,55.99
2023-06-07T12:46:59.508Z,55.92
2023-06-07T12:52:03.818Z,55.95
2023-06-07T12:57:07.523Z,54.79
2023-06-07T13:02:11.778Z,54.30
2023-06-07T13:07:15.094Z,54.18
2023-06-07T13:12:18.640Z,54.33
2023-06-07T13:17:21.958Z,53.44
2023-06-07T13:22:25.690Z,52.55
2023-06-07T13:27:28.935Z,50.94
2023-06-07T13:32:32.169Z,50.05
2023-06-07T13:37:35.502Z,49.87
2023-06-07T13:42:40.956Z,49.77
2023-06-07T13:47:44.078Z,49.86
2023-06-07T13:52:47.127Z,50.07
2023-06-07T13:57:50.178Z,50.38
2023-06-07T14:02:53.898Z,50.63
2023-06-07T14:07:57.120Z,50.97
2023-06-07T14:13:00.567Z,51.07
2023-06-07T14:18:04.709Z,51.55
2023-06-07T14:23:08.928Z,52.18
2023-06-07T14:28:11.992Z,51.70
2023-06-07T14:33:15.136Z,51.13
2023-06-07T14:38:18.245Z,51.02
2023-06-07T14:43:21.524Z,50.89
2023-06-07T14:48:24.581Z,51.60
2023-06-07T14:53:27.723Z,52.10
2023-06-07T14:58:30.924Z,51.62
2023-06-07T15:03:36.856Z,51.62
2023-06-07T15:08:40.062Z,51.51
2023-06-07T15:13:43.541Z,51.16
2023-06-07T15:18:46.859Z,50.60
2023-06-07T15:23:51.137Z,50.84
2023-06-07T16:13:52.534Z,54.90
2023-06-07T16:18:55.795Z,55.16
2023-06-07T16:23:59.538Z,55.08
2023-06-07T16:29:05.389Z,55.01
2023-06-07T16:34:09.019Z,54.72
2023-06-07T16:39:12.241Z,55.05
2023-06-07T16:44:16.015Z,55.23
2023-06-07T16:49:19.705Z,55.95
2023-06-07T16:54:22.832Z,56.42
2023-06-07T16:59:26.780Z,56.72
2023-06-07T17:04:29.815Z,56.90
2023-06-07T17:09:32.916Z,56.92
2023-06-07T17:14:36.068Z,57.05
2023-06-07T17:19:39.423Z,56.98
2023-06-07T17:24:43.357Z,57.18
2023-06-07T17:29:46.694Z,58.01
2023-06-07T17:34:49.769Z,58.00
2023-06-07T17:39:53.272Z,58.29
2023-06-07T17:44:56.540Z,58.59
2023-06-07T17:49:59.590Z,58.69
2023-06-07T17:55:02.834Z,59.17
2023-06-07T18:00:07.635Z,59.14
2023-06-07T18:05:21.711Z,59.82
2023-06-07T18:10:24.928Z,60.31
2023-06-07T18:15:29.038Z,61.28
2023-06-07T18:20:32.607Z,61.15
2023-06-07T18:25:35.827Z,59.27
2023-06-07T18:30:39.037Z,58.74
2023-06-07T18:35:42.172Z,58.76
2023-06-07T18:40:45.252Z,59.39
2023-06-07T18:45:49.212Z,59.97
2023-06-07T18:50:52.440Z,60.13
2023-06-07T18:55:55.647Z,60.57
2023-06-07T19:00:58.692Z,61.31
2023-06-07T19:06:02.943Z,61.38
2023-06-07T19:11:06.578Z,62.47
2023-06-07T19:16:10.180Z,63.42
2023-06-07T19:21:24.787Z,63.61
2023-06-07T19:26:29.658Z,63.78
2023-06-07T19:31:34.328Z,62.80
2023-06-07T19:36:38.484Z,62.75
2023-06-07T19:41:42.959Z,62.66
2023-06-07T19:46:48.084Z,62.88
2023-06-07T19:51:51.243Z,63.60
2023-06-07T19:56:54.400Z,66.48
2023-06-07T20:01:58.752Z,65.88
2023-06-07T20:07:03.014Z,66.05
2023-06-07T20:12:10.733Z,66.36
2023-06-07T20:17:14.817Z,64.91
2023-06-07T20:22:18.053Z,64.79
2023-06-07T20:27:21.169Z,65.09
2023-06-07T20:32:24.331Z,65.35
2023-06-07T20:37:27.414Z,65.59
2023-06-07T20:42:30.531Z,66.01
2023-06-07T20:47:35.226Z,66.09
2023-06-07T20:52:38.361Z,66.52
2023-06-07T20:57:41.723Z,66.77
2023-06-07T21:02:45.075Z,66.95
2023-06-07T21:07:48.560Z,67.10
2023-06-07T21:12:51.684Z,67.38
2023-06-07T21:17:54.735Z,67.75
2023-06-07T21:22:57.940Z,67.72
2023-06-07T21:28:01.265Z,68.11
2023-06-07T21:33:13.090Z,68.32
2023-06-07T21:38:16.162Z,68.59
2023-06-07T21:43:19.806Z,68.80
2023-06-07T21:48:23.157Z,68.94
2023-06-07T21:53:26.564Z,69.15
2023-06-07T21:58:29.912Z,69.42
2023-06-07T22:03:33.817Z,69.59
2023-06-07T22:08:39.947Z,69.80
2023-06-07T22:13:45.918Z,70.03
2023-06-07T22:18:49.895Z,69.95
2023-06-07T22:23:53.318Z,69.88
2023-06-07T22:29:01.452Z,69.85
2023-06-07T22:34:05.755Z,69.94
2023-06-07T22:39:12.435Z,70.12
2023-06-07T22:44:15.748Z,70.30
2023-06-07T22:49:19.809Z,70.40
2023-06-07T22:54:24.122Z,70.21
2023-06-07T22:59:27.405Z,70.16
2023-06-07T23:04:34.686Z,70.14
2023-06-07T23:09:39.415Z,70.07
2023-06-07T23:14:43.706Z,70.14
2023-06-07T23:19:51.225Z,69.96
2023-06-07T23:24:54.525Z,69.85
2023-06-07T23:29:57.868Z,69.67
2023-06-07T23:35:08.664Z,69.38
2023-06-07T23:40:16.968Z,69.41
2023-06-07T23:45:29.420Z,69.52
2023-06-07T23:50:32.727Z,69.89
2023-06-07T23:55:36.123Z,69.64
